Time;durP1;ratioP1;P1;durP2;ratioP2;P2;SDS_P1;SDS_P2;PMS_P1;PMS_P2;Temp;Humidity;BMP_temperature;BMP_pressure;BME280_temperature;BME280_humidity;BME280_pressure;Samples;Min_cycle;Max_cycle;Signal;HPM_P1;HPM_P2
2024/03/19 00:01:50;;;;;;;14.43;6.25;;;;;;;;;;5009563;28;20175;-68
2024/03/19 00:04:16;;;;;;;15.65;6.57;;;;;;;;;;5012374;28;20131;-65
2024/03/19 00:06:43;;;;;;;17.05;6.55;;;;;;;;;;5043078;28;20057;-65
2024/03/19 00:09:12;;;;;;;16.00;5.78;;;;;;;;;;5015658;28;20057;-65
2024/03/19 00:11:41;;;;;;;14.43;6.07;;;;;;;;;;5013756;28;20046;-65
2024/03/19 00:14:09;;;;;;;19.27;6.45;;;;;;;;;;4995580;28;21461;-65
2024/03/19 00:16:36;;;;;;;16.23;5.90;;;;;;;;;;5007735;28;20048;-65
2024/03/19 00:19:02;;;;;;;12.95;5.88;;;;;;;;;;5001836;28;20060;-65
2024/03/19 00:21:29;;;;;;;18.25;6.60;;;;;;;;;;5002036;28;20290;-67
2024/03/19 00:23:56;;;;;;;17.30;7.22;;;;;;;;;;4993018;28;20052;-68
2024/03/19 00:26:23;;;;;;;18.88;6.88;;;;;;;;;;4993420;28;20073;-68
2024/03/19 00:28:51;;;;;;;17.33;6.90;;;;;;;;;;5016497;28;20058;-67
2024/03/19 00:31:20;;;;;;;18.23;7.47;;;;;;;;;;5000961;28;20071;-67
2024/03/19 00:33:48;;;;;;;18.85;8.02;;;;;;;;;;4998285;28;20515;-65
2024/03/19 00:36:17;;;;;;;22.27;9.02;;;;;;;;;;4986802;28;21138;-67
2024/03/19 00:38:43;;;;;;;24.17;8.82;;;;;;;;;;5000481;28;20103;-67
2024/03/19 00:41:11;;;;;;;26.35;9.30;;;;;;;;;;4998532;28;20154;-68
2024/03/19 00:43:38;;;;;;;23.65;9.02;;;;;;;;;;4999427;28;20108;-65
2024/03/19 00:46:07;;;;;;;22.38;8.98;;;;;;;;;;4990226;28;20066;-65
2024/03/19 00:48:34;;;;;;;23.88;9.07;;;;;;;;;;4999097;28;20396;-65
2024/03/19 00:51:01;;;;;;;24.95;9.38;;;;;;;;;;4999275;28;20053;-67
2024/03/19 00:53:28;;;;;;;26.38;10.13;;;;;;;;;;5000029;28;20119;-67
2024/03/19 00:55:55;;;;;;;23.73;9.20;;;;;;;;;;4981100;28;20041;-67
2024/03/19 00:58:22;;;;;;;19.10;8.93;;;;;;;;;;4998175;28;20111;-67
2024/03/19 01:00:49;;;;;;;19.70;8.88;;;;;;;;;;4999175;28;20058;-67
2024/03/19 01:03:19;;;;;;;27.10;8.95;;;;;;;;;;4999579;28;20054;-67
2024/03/19 01:05:50;;;;;;;21.77;8.73;;;;;;;;;;4994082;28;20085;-65
2024/03/19 01:08:17;;;;;;;21.50;8.88;;;;;;;;;;5000426;28;20057;-65
2024/03/19 01:10:45;;;;;;;20.27;9.38;;;;;;;;;;5001734;28;20064;-65
2024/03/19 01:13:11;;;;;;;24.33;8.95;;;;;;;;;;4999080;28;22224;-65
2024/03/19 01:15:41;;;;;;;27.73;9.65;;;;;;;;;;4996364;28;20053;-65
2024/03/19 01:18:08;;;;;;;22.33;8.90;;;;;;;;;;4981849;28;20092;-65
2024/03/19 01:20:36;;;;;;;19.08;7.88;;;;;;;;;;4999685;28;20049;-65
2024/03/19 01:23:03;;;;;;;23.63;8.98;;;;;;;;;;4997564;28;20596;-65
2024/03/19 01:25:30;;;;;;;23.15;9.52;;;;;;;;;;4998648;28;20069;-65
2024/03/19 01:27:58;;;;;;;22.35;8.77;;;;;;;;;;4995266;28;20133;-65
2024/03/19 01:30:24;;;;;;;22.58;8.75;;;;;;;;;;5001970;28;20077;-65
2024/03/19 01:32:51;;;;;;;17.05;7.53;;;;;;;;;;4998857;28;20204;-65
2024/03/19 01:35:18;;;;;;;23.30;8.43;;;;;;;;;;4993440;28;20050;-64
2024/03/19 01:37:48;;;;;;;21.05;8.65;;;;;;;;;;4995928;28;20062;-65
2024/03/19 01:40:15;;;;;;;22.85;8.98;;;;;;;;;;4999026;28;20065;-65
2024/03/19 01:42:42;;;;;;;26.35;9.45;;;;;;;;;;4998009;28;20069;-65
2024/03/19 01:45:11;;;;;;;19.55;8.68;;;;;;;;;;4995953;28;20487;-65
2024/03/19 01:47:37;;;;;;;24.52;9.20;;;;;;;;;;4992325;28;20057;-65
2024/03/19 01:50:06;;;;;;;23.83;8.70;;;;;;;;;;4995261;28;20172;-65
2024/03/19 01:52:33;;;;;;;;;;;;;;;;;;4997856;28;20381;-65
2024/03/19 01:55:02;;;;;;;19.08;7.78;;;;;;;;;;5031544;28;19930;-65
2024/03/19 01:57:29;;;;;;;22.00;8.13;;;;;;;;;;4983917;28;20048;-66
2024/03/19 01:59:55;;;;;;;22.77;8.75;;;;;;;;;;4994240;28;20053;-65
2024/03/19 02:02:31;;;;;;;22.00;8.82;;;;;;;;;;4999659;28;20057;-64
2024/03/19 02:04:59;;;;;;;15.50;7.53;;;;;;;;;;5000596;28;20085;-65
2024/03/19 02:07:26;;;;;;;19.92;8.18;;;;;;;;;;4993092;28;20046;-64
2024/03/19 02:09:53;;;;;;;24.63;8.65;;;;;;;;;;4993273;28;20198;-65
2024/03/19 02:12:22;;;;;;;23.70;8.90;;;;;;;;;;4998990;28;20061;-65
2024/03/19 02:14:49;;;;;;;26.17;9.38;;;;;;;;;;4997440;28;20100;-65
2024/03/19 02:17:16;;;;;;;22.63;8.93;;;;;;;;;;4974740;28;20064;-65
2024/03/19 02:19:43;;;;;;;27.17;9.40;;;;;;;;;;4993389;28;20057;-66
2024/03/19 02:22:10;;;;;;;26.85;10.00;;;;;;;;;;4997198;28;20057;-65
2024/03/19 02:24:39;;;;;;;28.58;11.15;;;;;;;;;;4999426;28;20115;-65
2024/03/19 02:27:06;;;;;;;28.80;11.52;;;;;;;;;;4994905;28;20143;-65
2024/03/19 02:29:33;;;;;;;32.25;11.98;;;;;;;;;;4998776;28;20049;-64
2024/03/19 02:32:00;;;;;;;29.27;12.80;;;;;;;;;;4992291;28;20061;-65
2024/03/19 02:34:27;;;;;;;29.08;11.80;;;;;;;;;;4997655;28;20064;-65
2024/03/19 02:36:55;;;;;;;30.52;11.60;;;;;;;;;;4993593;28;20140;-65
2024/03/19 02:39:23;;;;;;;26.60;10.45;;;;;;;;;;4997490;28;20129;-65
2024/03/19 02:41:52;;;;;;;24.70;11.18;;;;;;;;;;4993683;28;20053;-65
2024/03/19 02:44:19;;;;;;;25.67;9.40;;;;;;;;;;4999715;28;20080;-65
2024/03/19 02:46:46;;;;;;;23.90;8.73;;;;;;;;;;4995807;28;20056;-65
2024/03/19 02:49:13;;;;;;;20.85;8.07;;;;;;;;;;4998476;28;20053;-64
2024/03/19 02:51:39;;;;;;;23.75;7.97;;;;;;;;;;4996100;28;20054;-64
2024/03/19 02:54:06;;;;;;;19.92;7.00;;;;;;;;;;4993462;28;20472;-65
2024/03/19 02:56:33;;;;;;;23.92;7.95;;;;;;;;;;4990101;28;20139;-64
2024/03/19 02:59:01;;;;;;;21.13;9.05;;;;;;;;;;5008509;28;20288;-65
2024/03/19 03:01:28;;;;;;;30.85;8.40;;;;;;;;;;4998985;28;20517;-65
2024/03/19 03:03:55;;;;;;;22.42;9.43;;;;;;;;;;4945725;28;20146;-65
2024/03/19 03:06:22;;;;;;;22.45;8.05;;;;;;;;;;4995737;28;20063;-65
2024/03/19 03:08:48;;;;;;;20.23;8.95;;;;;;;;;;4996112;28;20038;-65
2024/03/19 03:11:15;;;;;;;20.38;8.48;;;;;;;;;;4997320;28;20114;-65
2024/03/19 03:13:42;;;;;;;19.73;8.52;;;;;;;;;;4993061;28;20123;-65
2024/03/19 03:16:10;;;;;;;24.98;9.07;;;;;;;;;;4992151;28;20064;-64
2024/03/19 03:18:37;;;;;;;21.42;9.10;;;;;;;;;;4998019;28;20092;-65
2024/03/19 03:21:04;;;;;;;20.98;9.13;;;;;;;;;;4996666;28;20076;-66
2024/03/19 03:23:31;;;;;;;29.15;9.57;;;;;;;;;;4991713;28;20145;-65
2024/03/19 03:25:58;;;;;;;24.23;9.55;;;;;;;;;;4992788;28;20268;-64
2024/03/19 03:28:23;;;;;;;22.35;9.10;;;;;;;;;;4999020;28;20050;-65
2024/03/19 03:30:51;;;;;;;31.48;9.68;;;;;;;;;;4996073;28;20056;-64
2024/03/19 03:33:19;;;;;;;19.00;9.25;;;;;;;;;;4992168;28;20061;-65
2024/03/19 03:35:47;;;;;;;22.98;9.40;;;;;;;;;;4990085;28;20064;-65
2024/03/19 03:38:14;;;;;;;24.90;9.07;;;;;;;;;;4994697;28;20136;-65
2024/03/19 03:40:41;;;;;;;22.65;9.98;;;;;;;;;;4997332;28;20053;-65
2024/03/19 03:43:08;;;;;;;25.48;9.07;;;;;;;;;;4997760;28;20100;-65
2024/03/19 03:45:36;;;;;;;28.95;9.35;;;;;;;;;;5026503;28;20054;-64
2024/03/19 03:48:03;;;;;;;29.77;9.33;;;;;;;;;;4992433;28;21452;-65
2024/03/19 03:50:30;;;;;;;24.23;9.73;;;;;;;;;;5001022;28;20291;-65
2024/03/19 03:52:56;;;;;;;19.90;8.65;;;;;;;;;;5001983;28;20053;-64
2024/03/19 03:55:23;;;;;;;24.45;9.45;;;;;;;;;;4995249;28;20046;-66
2024/03/19 03:57:52;;;;;;;26.60;8.98;;;;;;;;;;5027339;28;20135;-65
2024/03/19 04:00:19;;;;;;;27.33;8.90;;;;;;;;;;5002527;28;20060;-66
2024/03/19 04:02:47;;;;;;;22.23;8.38;;;;;;;;;;5032473;28;20269;-65
2024/03/19 04:05:14;;;;;;;28.25;9.23;;;;;;;;;;4986439;28;20132;-65
2024/03/19 04:07:44;;;;;;;23.52;9.57;;;;;;;;;;5000449;28;20133;-66
2024/03/19 04:10:12;;;;;;;25.02;9.50;;;;;;;;;;5003814;28;20061;-66
2024/03/19 04:12:40;;;;;;;25.40;9.65;;;;;;;;;;4999032;28;20053;-66
2024/03/19 04:15:08;;;;;;;23.48;9.02;;;;;;;;;;4995146;28;20057;-66
2024/03/19 04:17:35;;;;;;;21.60;8.25;;;;;;;;;;5001765;28;20062;-66
2024/03/19 04:20:05;;;;;;;25.40;8.73;;;;;;;;;;4994957;28;20052;-66
2024/03/19 04:22:31;;;;;;;24.33;9.00;;;;;;;;;;5001082;28;20140;-65
2024/03/19 04:24:59;;;;;;;21.73;8.85;;;;;;;;;;4995973;28;20057;-66
2024/03/19 04:27:26;;;;;;;24.20;8.63;;;;;;;;;;4998943;28;20155;-65
2024/03/19 04:29:53;;;;;;;20.17;7.90;;;;;;;;;;4996498;28;20253;-65
2024/03/19 04:32:20;;;;;;;23.45;8.38;;;;;;;;;;5002225;28;20202;-65
2024/03/19 04:34:47;;;;;;;22.83;8.80;;;;;;;;;;4996137;28;20551;-65
2024/03/19 04:37:15;;;;;;;24.45;8.73;;;;;;;;;;5000901;28;20068;-65
2024/03/19 04:39:42;;;;;;;21.52;7.80;;;;;;;;;;4999837;28;20045;-65
2024/03/19 04:42:15;;;;;;;22.35;8.48;;;;;;;;;;5014453;28;20054;-65
2024/03/19 04:44:42;;;;;;;18.33;7.78;;;;;;;;;;4994091;28;20148;-65
2024/03/19 04:47:09;;;;;;;23.13;8.55;;;;;;;;;;5001785;28;20074;-65
2024/03/19 04:49:35;;;;;;;17.15;7.80;;;;;;;;;;4998904;28;20053;-64
2024/03/19 04:52:02;;;;;;;19.55;8.05;;;;;;;;;;4994515;28;20135;-65
2024/03/19 04:54:29;;;;;;;21.13;7.70;;;;;;;;;;4994097;28;20053;-64
2024/03/19 04:56:56;;;;;;;17.10;7.47;;;;;;;;;;5005974;28;20061;-65
2024/03/19 04:59:24;;;;;;;23.20;7.50;;;;;;;;;;4998332;28;20056;-65
2024/03/19 05:01:51;;;;;;;26.08;7.65;;;;;;;;;;4993303;28;20049;-65
2024/03/19 05:04:18;;;;;;;20.23;8.77;;;;;;;;;;4995138;28;20069;-65
2024/03/19 05:06:44;;;;;;;16.48;7.45;;;;;;;;;;4999746;28;20096;-65
2024/03/19 05:09:11;;;;;;;17.00;7.38;;;;;;;;;;4998280;28;20128;-65
2024/03/19 05:11:38;;;;;;;18.92;7.63;;;;;;;;;;4992753;28;20061;-64
2024/03/19 05:14:05;;;;;;;20.38;7.22;;;;;;;;;;5014085;28;20050;-64
2024/03/19 05:16:33;;;;;;;18.30;7.50;;;;;;;;;;4994572;28;20072;-64
2024/03/19 05:19:00;;;;;;;18.45;7.57;;;;;;;;;;4998798;28;20050;-64
2024/03/19 05:21:26;;;;;;;16.15;8.00;;;;;;;;;;4997228;28;20060;-65
2024/03/19 05:23:53;;;;;;;21.98;7.97;;;;;;;;;;5007500;28;20119;-65
2024/03/19 05:26:20;;;;;;;16.95;7.85;;;;;;;;;;4996448;28;20085;-65
2024/03/19 05:28:47;;;;;;;17.95;6.85;;;;;;;;;;5027835;28;20060;-65
2024/03/19 05:31:22;;;;;;;25.25;8.68;;;;;;;;;;4994356;28;20053;-65
2024/03/19 05:33:54;;;;;;;22.73;8.50;;;;;;;;;;4979308;28;20175;-65
2024/03/19 05:36:21;;;;;;;23.45;8.68;;;;;;;;;;4993923;28;20452;-64
2024/03/19 05:38:49;;;;;;;19.45;8.35;;;;;;;;;;4994713;28;20062;-65
2024/03/19 05:41:19;;;;;;;22.58;8.35;;;;;;;;;;4994028;28;20061;-65
2024/03/19 05:43:50;;;;;;;22.00;8.52;;;;;;;;;;4972769;28;20095;-64
2024/03/19 05:46:17;;;;;;;19.38;8.43;;;;;;;;;;5008339;28;20050;-65
2024/03/19 05:48:44;;;;;;;25.88;11.43;;;;;;;;;;4994988;28;20146;-65
2024/03/19 05:51:14;;;;;;;19.83;8.77;;;;;;;;;;4992181;28;20050;-64
2024/03/19 05:53:41;;;;;;;17.23;7.82;;;;;;;;;;5009324;28;20075;-64
2024/03/19 05:56:09;;;;;;;20.20;8.07;;;;;;;;;;4977394;28;21463;-64
2024/03/19 05:58:38;;;;;;;19.73;8.07;;;;;;;;;;4991719;28;20058;-64
2024/03/19 06:01:04;;;;;;;;;;;;;;;;;;4990600;28;20050;-64
2024/03/19 06:03:33;;;;;;;16.73;6.75;;;;;;;;;;4972395;28;19965;-64
2024/03/19 06:06:03;;;;;;;25.50;8.25;;;;;;;;;;4976178;28;20402;-64
2024/03/19 06:08:31;;;;;;;14.80;7.22;;;;;;;;;;4992394;28;20057;-64
2024/03/19 06:10:59;;;;;;;19.73;7.45;;;;;;;;;;4991021;28;20054;-64
2024/03/19 06:13:25;;;;;;;20.02;8.10;;;;;;;;;;4977586;28;20064;-65
2024/03/19 06:15:52;;;;;;;21.20;8.30;;;;;;;;;;4967628;28;20075;-65
2024/03/19 06:18:19;;;;;;;18.95;7.80;;;;;;;;;;4996943;28;20046;-64
2024/03/19 06:20:46;;;;;;;25.00;7.75;;;;;;;;;;4993406;28;20054;-64
2024/03/19 06:23:14;;;;;;;22.05;7.80;;;;;;;;;;4994798;28;20146;-66
2024/03/19 06:25:45;;;;;;;19.98;8.13;;;;;;;;;;4949902;28;20200;-66
2024/03/19 06:28:11;;;;;;;18.20;7.70;;;;;;;;;;4984996;28;20053;-67
2024/03/19 06:30:40;;;;;;;19.35;7.70;;;;;;;;;;4993458;28;20059;-67
2024/03/19 06:33:07;;;;;;;21.80;7.80;;;;;;;;;;4995242;28;20065;-67
2024/03/19 06:35:36;;;;;;;20.40;7.85;;;;;;;;;;4992040;28;20054;-67
2024/03/19 06:38:04;;;;;;;20.67;7.28;;;;;;;;;;4992643;28;20053;-67
2024/03/19 06:40:31;;;;;;;21.35;7.85;;;;;;;;;;4999245;28;20152;-67
2024/03/19 06:43:00;;;;;;;20.77;8.10;;;;;;;;;;5030663;28;20091;-67
2024/03/19 06:45:29;;;;;;;21.50;8.18;;;;;;;;;;4977169;28;20060;-67
2024/03/19 06:47:56;;;;;;;23.73;8.70;;;;;;;;;;4995122;28;20054;-66
2024/03/19 06:50:23;;;;;;;24.58;8.13;;;;;;;;;;4998886;28;20050;-67
2024/03/19 06:52:51;;;;;;;18.30;7.78;;;;;;;;;;4996238;28;20046;-66
2024/03/19 06:55:22;;;;;;;22.75;8.60;;;;;;;;;;5004122;28;20171;-66
2024/03/19 06:57:51;;;;;;;18.02;7.57;;;;;;;;;;4990504;28;20053;-67
2024/03/19 07:00:22;;;;;;;22.65;7.97;;;;;;;;;;4999474;28;20133;-66
2024/03/19 07:02:49;;;;;;;19.45;8.15;;;;;;;;;;5031613;28;20061;-67
2024/03/19 07:05:16;;;;;;;28.60;8.05;;;;;;;;;;4982489;28;20062;-67
2024/03/19 07:07:44;;;;;;;21.55;7.97;;;;;;;;;;4995884;28;20064;-66
2024/03/19 07:10:12;;;;;;;27.48;8.55;;;;;;;;;;4995889;28;20054;-67
2024/03/19 07:12:40;;;;;;;20.20;8.45;;;;;;;;;;4999105;28;20136;-66
2024/03/19 07:15:10;;;;;;;26.88;8.52;;;;;;;;;;5014086;28;20150;-66
2024/03/19 07:17:49;;;;;;;18.95;8.10;;;;;;;;;;4996417;28;20054;-66
2024/03/19 07:20:19;;;;;;;19.73;7.72;;;;;;;;;;4994038;28;20053;-67
2024/03/19 07:22:47;;;;;;;22.92;8.40;;;;;;;;;;4996227;28;20057;-67
2024/03/19 07:25:14;;;;;;;18.67;7.88;;;;;;;;;;5001051;28;20066;-67
2024/03/19 07:27:43;;;;;;;22.33;8.65;;;;;;;;;;5000400;28;20060;-67
2024/03/19 07:30:14;;;;;;;17.40;8.07;;;;;;;;;;4999989;28;20061;-66
2024/03/19 07:32:43;;;;;;;17.83;7.93;;;;;;;;;;5001473;28;20464;-65
2024/03/19 07:35:11;;;;;;;18.90;8.13;;;;;;;;;;4992025;28;20117;-65
2024/03/19 07:37:39;;;;;;;;;;;;;;;;;;5003578;28;20077;-67
2024/03/19 07:40:09;;;;;;;18.38;7.32;;;;;;;;;;4997903;28;19933;-67
2024/03/19 07:42:37;;;;;;;23.88;7.70;;;;;;;;;;5003548;28;20093;-66
2024/03/19 07:45:06;;;;;;;16.95;6.10;;;;;;;;;;4979836;28;20064;-67
2024/03/19 07:47:33;;;;;;;19.23;7.43;;;;;;;;;;5007919;28;20171;-67
2024/03/19 07:50:03;;;;;;;25.17;7.68;;;;;;;;;;4997258;28;20077;-67
2024/03/19 07:52:30;;;;;;;19.60;7.72;;;;;;;;;;5034395;28;20057;-67
2024/03/19 07:54:57;;;;;;;19.95;6.90;;;;;;;;;;5004312;28;20087;-67
2024/03/19 07:57:24;;;;;;;18.10;7.72;;;;;;;;;;4999198;28;20212;-66
2024/03/19 07:59:54;;;;;;;16.48;6.82;;;;;;;;;;4998076;28;20061;-66
2024/03/19 08:02:24;;;;;;;21.23;8.43;;;;;;;;;;5000230;28;20212;-65
2024/03/19 08:04:51;;;;;;;19.88;7.57;;;;;;;;;;4989962;28;20144;-66
2024/03/19 08:07:22;;;;;;;18.73;7.53;;;;;;;;;;5011874;28;20037;-65
2024/03/19 08:09:49;;;;;;;16.63;7.50;;;;;;;;;;4997842;28;20072;-65
2024/03/19 08:12:15;;;;;;;15.35;6.88;;;;;;;;;;5036230;28;20054;-66
2024/03/19 08:14:42;;;;;;;16.13;6.82;;;;;;;;;;4994806;28;20064;-65
2024/03/19 08:17:12;;;;;;;16.42;6.75;;;;;;;;;;5000783;28;20141;-65
2024/03/19 08:19:43;;;;;;;20.67;7.32;;;;;;;;;;4999312;28;20092;-65
2024/03/19 08:22:18;;;;;;;15.82;6.35;;;;;;;;;;4999142;28;20061;-65
2024/03/19 08:24:52;;;;;;;19.58;5.78;;;;;;;;;;4967055;28;20091;-65
2024/03/19 08:27:20;;;;;;;20.52;5.88;;;;;;;;;;5009482;28;20181;-66
2024/03/19 08:29:48;;;;;;;17.98;6.55;;;;;;;;;;5027001;28;20077;-66
2024/03/19 08:32:15;;;;;;;14.37;6.03;;;;;;;;;;4999291;28;20065;-66
2024/03/19 08:34:42;;;;;;;20.88;6.72;;;;;;;;;;4993448;28;20072;-66
2024/03/19 08:37:11;;;;;;;15.93;6.05;;;;;;;;;;4995433;28;20142;-65
2024/03/19 08:39:39;;;;;;;12.48;5.63;;;;;;;;;;5001145;28;20064;-66
2024/03/19 08:42:07;;;;;;;14.52;5.07;;;;;;;;;;4992528;28;20280;-66
2024/03/19 08:44:37;;;;;;;14.32;6.10;;;;;;;;;;4992502;28;20065;-65
2024/03/19 08:47:07;;;;;;;14.82;5.50;;;;;;;;;;5002583;28;20577;-66
2024/03/19 08:49:35;;;;;;;13.45;5.57;;;;;;;;;;5002406;28;20068;-65
2024/03/19 08:52:01;;;;;;;14.30;5.60;;;;;;;;;;4995004;28;20057;-65
2024/03/19 08:54:32;;;;;;;11.68;4.60;;;;;;;;;;4950518;28;21021;-67
2024/03/19 08:56:59;;;;;;;13.77;4.65;;;;;;;;;;4984321;28;20065;-64
2024/03/19 08:59:34;;;;;;;14.93;4.55;;;;;;;;;;5032461;28;20081;-65
2024/03/19 09:02:03;;;;;;;11.40;4.55;;;;;;;;;;4990076;28;20054;-66
2024/03/19 09:04:32;;;;;;;;;;;;;;;;;;4982916;28;20496;-66
2024/03/19 09:07:01;;;;;;;15.88;4.32;;;;;;;;;;5019324;28;20072;-67
2024/03/19 09:09:30;;;;;;;10.40;4.63;;;;;;;;;;4999696;28;20096;-65
2024/03/19 09:12:04;;;;;;;11.70;4.00;;;;;;;;;;4993491;28;20065;-65
2024/03/19 09:14:32;;;;;;;12.82;4.07;;;;;;;;;;4962543;28;20552;-65
2024/03/19 09:17:00;;;;;;;9.35;3.67;;;;;;;;;;4997649;28;20076;-66
2024/03/19 09:19:40;;;;;;;10.30;3.63;;;;;;;;;;5000175;28;20493;-66
2024/03/19 09:22:09;;;;;;;13.23;4.75;;;;;;;;;;5001008;28;20061;-66
2024/03/19 09:24:39;;;;;;;9.30;3.53;;;;;;;;;;4968038;28;20053;-66
2024/03/19 09:27:07;;;;;;;8.02;3.10;;;;;;;;;;5008377;28;20060;-66
2024/03/19 09:29:35;;;;;;;11.57;3.65;;;;;;;;;;4998524;28;20061;-66
2024/03/19 09:32:03;;;;;;;8.10;3.42;;;;;;;;;;4996952;28;20343;-66
2024/03/19 09:34:30;;;;;;;9.45;3.20;;;;;;;;;;4984887;28;20065;-66
2024/03/19 09:36:57;;;;;;;10.80;2.88;;;;;;;;;;5012176;28;20057;-65
2024/03/19 09:39:27;;;;;;;6.90;2.90;;;;;;;;;;4999304;28;20053;-66
2024/03/19 09:42:06;;;;;;;8.68;2.78;;;;;;;;;;4993377;28;20079;-66
2024/03/19 09:44:33;;;;;;;9.90;3.03;;;;;;;;;;4980232;28;20065;-66
2024/03/19 09:47:04;;;;;;;8.27;3.10;;;;;;;;;;5004946;28;20057;-66
2024/03/19 09:49:33;;;;;;;8.50;3.10;;;;;;;;;;4999534;28;20058;-66
2024/03/19 09:52:05;;;;;;;7.63;3.22;;;;;;;;;;4993250;28;20441;-66
2024/03/19 09:54:32;;;;;;;8.45;3.17;;;;;;;;;;4996589;28;20065;-66
2024/03/19 09:57:04;;;;;;;11.45;3.20;;;;;;;;;;4997232;28;20054;-66
2024/03/19 09:59:32;;;;;;;9.55;3.08;;;;;;;;;;4999942;28;20554;-66
2024/03/19 10:01:58;;;;;;;7.83;3.27;;;;;;;;;;4992922;28;20081;-66
2024/03/19 10:04:29;;;;;;;7.75;3.35;;;;;;;;;;4976010;28;20064;-65
2024/03/19 10:06:58;;;;;;;12.35;3.47;;;;;;;;;;4996303;28;20081;-66
2024/03/19 10:09:31;;;;;;;10.02;3.05;;;;;;;;;;4999981;28;20173;-66
2024/03/19 10:12:01;;;;;;;8.88;3.03;;;;;;;;;;4995757;28;20045;-66
2024/03/19 10:14:28;;;;;;;11.20;3.10;;;;;;;;;;4994262;28;20061;-66
2024/03/19 10:16:55;;;;;;;9.15;3.20;;;;;;;;;;4998454;28;20228;-66
2024/03/19 10:19:22;;;;;;;9.82;2.60;;;;;;;;;;4995787;28;20569;-66
2024/03/19 10:21:50;;;;;;;9.65;3.20;;;;;;;;;;4995646;28;20157;-66
2024/03/19 10:24:20;;;;;;;8.95;3.15;;;;;;;;;;4992272;28;20065;-65
2024/03/19 10:26:48;;;;;;;12.65;3.58;;;;;;;;;;5003804;28;20139;-67
2024/03/19 10:29:20;;;;;;;11.23;2.47;;;;;;;;;;4998227;28;20061;-66
2024/03/19 10:31:53;;;;;;;7.18;3.10;;;;;;;;;;5027858;28;20085;-67
2024/03/19 10:34:23;;;;;;;18.77;2.72;;;;;;;;;;4977061;28;20061;-66
2024/03/19 10:36:52;;;;;;;9.82;2.85;;;;;;;;;;4994134;28;20076;-66
2024/03/19 10:39:24;;;;;;;8.13;2.33;;;;;;;;;;4996116;28;20108;-65
2024/03/19 10:41:56;;;;;;;6.90;2.25;;;;;;;;;;4993122;28;20049;-66
2024/03/19 10:44:25;;;;;;;10.35;2.30;;;;;;;;;;4965179;28;20064;-66
2024/03/19 10:46:53;;;;;;;10.85;2.20;;;;;;;;;;4999004;28;20112;-66
2024/03/19 10:49:22;;;;;;;6.40;2.45;;;;;;;;;;4996221;28;20062;-65
2024/03/19 10:51:56;;;;;;;9.02;2.05;;;;;;;;;;4984482;28;20057;-66
2024/03/19 10:54:28;;;;;;;7.97;2.38;;;;;;;;;;4962193;28;20073;-65
2024/03/19 10:56:55;;;;;;;9.18;2.20;;;;;;;;;;5002135;28;20196;-66
2024/03/19 10:59:24;;;;;;;7.20;1.92;;;;;;;;;;4997696;28;20050;-68
2024/03/19 11:01:52;;;;;;;6.47;2.17;;;;;;;;;;4995149;28;20124;-66
2024/03/19 11:04:25;;;;;;;8.20;1.80;;;;;;;;;;4975694;28;20072;-66
2024/03/19 11:07:00;;;;;;;9.38;2.03;;;;;;;;;;5009762;28;20062;-65
2024/03/19 11:09:29;;;;;;;5.60;1.88;;;;;;;;;;5029792;28;20051;-66
2024/03/19 11:11:57;;;;;;;10.73;1.88;;;;;;;;;;4989257;28;20089;-66
2024/03/19 11:14:25;;;;;;;5.95;1.70;;;;;;;;;;4978641;28;20160;-66
2024/03/19 11:16:52;;;;;;;6.40;1.77;;;;;;;;;;4997808;28;20053;-65
2024/03/19 11:19:23;;;;;;;5.70;1.67;;;;;;;;;;4994167;28;20049;-65
2024/03/19 11:21:50;;;;;;;6.35;1.88;;;;;;;;;;4993655;28;20054;-66
2024/03/19 11:24:25;;;;;;;12.35;2.08;;;;;;;;;;4995832;28;20073;-67
2024/03/19 11:26:58;;;;;;;8.52;1.50;;;;;;;;;;4975872;28;20120;-65
2024/03/19 11:29:28;;;;;;;6.05;1.63;;;;;;;;;;4997159;28;20065;-66
2024/03/19 11:31:57;;;;;;;9.98;1.50;;;;;;;;;;4987268;28;20080;-66
2024/03/19 11:34:24;;;;;;;10.82;2.05;;;;;;;;;;4983038;28;20064;-65
2024/03/19 11:36:52;;;;;;;7.70;1.63;;;;;;;;;;4995695;28;20061;-65
2024/03/19 11:39:19;;;;;;;5.00;1.33;;;;;;;;;;4997017;28;20062;-65
2024/03/19 11:41:49;;;;;;;5.63;1.35;;;;;;;;;;5026758;28;20050;-65
2024/03/19 11:44:17;;;;;;;7.03;1.52;;;;;;;;;;4992188;28;20125;-65
2024/03/19 11:46:46;;;;;;;8.43;1.90;;;;;;;;;;5030222;28;20060;-65
2024/03/19 11:49:23;;;;;;;6.78;1.70;;;;;;;;;;4995946;28;21015;-65
2024/03/19 11:51:58;;;;;;;9.93;1.75;;;;;;;;;;4994515;28;20115;-65
2024/03/19 11:54:25;;;;;;;9.55;1.58;;;;;;;;;;5024991;28;20065;-65
2024/03/19 11:56:54;;;;;;;7.82;1.60;;;;;;;;;;4976124;28;20057;-65
2024/03/19 11:59:24;;;;;;;5.85;1.60;;;;;;;;;;4997253;28;20891;-65
2024/03/19 12:01:56;;;;;;;4.97;1.67;;;;;;;;;;4991298;28;20195;-65
2024/03/19 12:04:25;;;;;;;8.95;1.65;;;;;;;;;;4981085;28;20052;-65
2024/03/19 12:06:54;;;;;;;8.15;1.52;;;;;;;;;;5005644;28;20176;-65
2024/03/19 12:09:25;;;;;;;9.38;1.48;;;;;;;;;;5030575;28;20068;-64
2024/03/19 12:11:53;;;;;;;8.77;1.58;;;;;;;;;;4999048;28;20073;-64
2024/03/19 12:14:23;;;;;;;6.90;1.55;;;;;;;;;;4982081;28;20127;-68
2024/03/19 12:16:53;;;;;;;6.25;1.65;;;;;;;;;;4996529;28;20080;-67
2024/03/19 12:19:24;;;;;;;7.93;1.88;;;;;;;;;;5017331;28;20112;-67
2024/03/19 12:21:55;;;;;;;7.13;1.77;;;;;;;;;;4998083;28;20054;-67
2024/03/19 12:24:25;;;;;;;7.93;2.15;;;;;;;;;;4996714;28;20103;-64
2024/03/19 12:26:52;;;;;;;7.10;1.92;;;;;;;;;;5020562;28;20086;-65
2024/03/19 12:29:21;;;;;;;10.48;1.83;;;;;;;;;;5002323;28;20062;-65
2024/03/19 12:31:59;;;;;;;9.93;2.13;;;;;;;;;;4999436;28;20046;-65
2024/03/19 12:34:48;;;;;;;6.85;2.00;;;;;;;;;;4995771;28;20054;-66
2024/03/19 12:37:21;;;;;;;4.57;1.52;;;;;;;;;;4995068;28;20087;-66
2024/03/19 12:39:48;;;;;;;7.38;2.10;;;;;;;;;;4996072;28;20081;-66
2024/03/19 12:42:17;;;;;;;5.05;1.75;;;;;;;;;;4999111;28;20050;-66
2024/03/19 12:44:49;;;;;;;10.70;1.92;;;;;;;;;;4996502;28;20172;-66
2024/03/19 12:47:18;;;;;;;5.95;1.95;;;;;;;;;;5001834;28;20076;-66
2024/03/19 12:49:49;;;;;;;10.30;1.85;;;;;;;;;;4997158;28;20068;-67
2024/03/19 12:52:16;;;;;;;4.93;1.60;;;;;;;;;;5000490;28;20067;-65
2024/03/19 12:54:45;;;;;;;9.32;1.80;;;;;;;;;;4997491;28;20058;-65
2024/03/19 12:57:12;;;;;;;9.30;3.40;;;;;;;;;;4999178;28;20058;-66
2024/03/19 12:59:43;;;;;;;7.03;1.70;;;;;;;;;;4996970;28;20176;-65
2024/03/19 13:02:14;;;;;;;6.38;1.70;;;;;;;;;;4996753;28;20193;-65
2024/03/19 13:04:45;;;;;;;9.48;1.60;;;;;;;;;;4988765;28;20049;-66
2024/03/19 13:07:15;;;;;;;7.15;1.55;;;;;;;;;;4988698;28;20065;-65
2024/03/19 13:09:47;;;;;;;9.38;1.90;;;;;;;;;;4996358;28;20071;-66
2024/03/19 13:12:21;;;;;;;6.80;1.40;;;;;;;;;;4998729;28;20927;-65
2024/03/19 13:14:47;;;;;;;6.22;1.40;;;;;;;;;;4996060;28;20079;-65
2024/03/19 13:17:17;;;;;;;9.98;1.60;;;;;;;;;;4976784;28;20055;-65
2024/03/19 13:19:48;;;;;;;7.30;1.90;;;;;;;;;;4995532;28;20068;-66
2024/03/19 13:22:15;;;;;;;6.18;1.80;;;;;;;;;;5030729;28;20168;-65
2024/03/19 13:24:42;;;;;;;6.22;1.40;;;;;;;;;;4988167;28;20104;-65
2024/03/19 13:27:09;;;;;;;7.40;1.65;;;;;;;;;;4994270;28;20084;-66
2024/03/19 13:29:37;;;;;;;8.57;1.60;;;;;;;;;;5030080;28;20069;-66
2024/03/19 13:32:05;;;;;;;10.32;1.83;;;;;;;;;;5028092;28;20061;-66
2024/03/19 13:34:33;;;;;;;4.93;1.40;;;;;;;;;;5030875;28;20066;-67
2024/03/19 13:37:00;;;;;;;8.30;1.50;;;;;;;;;;4988081;28;20061;-65
2024/03/19 13:39:26;;;;;;;4.00;1.70;;;;;;;;;;4999999;28;20053;-65
2024/03/19 13:41:57;;;;;;;4.20;1.58;;;;;;;;;;4997381;28;20069;-66
2024/03/19 13:44:24;;;;;;;4.50;1.27;;;;;;;;;;4979135;28;20081;-65
2024/03/19 13:46:51;;;;;;;5.28;1.58;;;;;;;;;;4995174;28;20065;-65
2024/03/19 13:49:26;;;;;;;7.53;1.50;;;;;;;;;;4999314;28;20053;-65
2024/03/19 13:51:55;;;;;;;6.22;1.77;;;;;;;;;;4989785;28;20077;-66
2024/03/19 13:54:22;;;;;;;8.68;1.80;;;;;;;;;;4986600;28;20096;-65
2024/03/19 13:56:55;;;;;;;6.72;1.55;;;;;;;;;;4995487;28;20057;-65
2024/03/19 13:59:21;;;;;;;7.10;1.60;;;;;;;;;;5004475;28;20053;-66
2024/03/19 14:01:51;;;;;;;8.55;2.22;;;;;;;;;;5001256;28;20069;-65
2024/03/19 14:04:18;;;;;;;10.45;2.97;;;;;;;;;;4979700;28;20053;-65
2024/03/19 14:06:45;;;;;;;8.02;1.83;;;;;;;;;;4992191;28;20058;-64
2024/03/19 14:09:17;;;;;;;8.18;3.08;;;;;;;;;;4988265;28;20050;-65
2024/03/19 14:11:47;;;;;;;4.65;1.30;;;;;;;;;;4998350;28;20061;-66
2024/03/19 14:14:13;;;;;;;6.18;1.60;;;;;;;;;;4996983;28;20068;-66
2024/03/19 14:16:40;;;;;;;7.32;1.60;;;;;;;;;;4996287;28;20060;-65
2024/03/19 14:19:12;;;;;;;4.78;1.42;;;;;;;;;;5033512;28;20116;-64
2024/03/19 14:21:40;;;;;;;8.68;1.70;;;;;;;;;;5031560;28;20096;-65
2024/03/19 14:24:07;;;;;;;5.60;1.30;;;;;;;;;;4994413;28;20067;-64
2024/03/19 14:26:36;;;;;;;6.88;1.35;;;;;;;;;;5000163;28;20068;-64
2024/03/19 14:29:07;;;;;;;5.82;1.73;;;;;;;;;;5002199;28;20053;-64
2024/03/19 14:31:37;;;;;;;3.58;1.50;;;;;;;;;;5001044;28;20053;-65
2024/03/19 14:34:09;;;;;;;6.03;1.45;;;;;;;;;;4993700;28;20300;-65
2024/03/19 14:36:36;;;;;;;9.65;1.70;;;;;;;;;;4978065;28;20091;-65
2024/03/19 14:39:10;;;;;;;6.20;1.35;;;;;;;;;;5001385;28;20057;-64
2024/03/19 14:42:05;;;;;;;8.63;1.70;;;;;;;;;;5000657;23;20047;-64
2024/03/19 14:44:32;;;;;;;7.57;2.75;;;;;;;;;;4965540;28;20062;-65